PWSweather.com
Personal Weather Stations
Station Observations
KTXNEWBR92
New Braunfels, TX

New Braunfels, TX

Lat: 29.722, Lon: -98.17

Elevation: 850

Station Type:

High Low Average
Temperature 57.2°F14.0°C 29.5°F-1.4°C 43.0°F6.1°C
Dew Point 33.8°F1.0°C 9.3°F-12.6°C 18.3°F-7.6°C
Winds 16.1 mph 25.9 kmh Calm Calm 4.0 mph SE6.4 kmh SE
Wind Gusts 19.9 mph32.0 kmh -- 6.0 mph9.7 kmh
Humidity 75% 16% 41%
Pressure 29.96 in1014.6 mb 29.74 in1007.1 mb -
Precipitation 0.00 in0.0 mm - -
Hour Temp Dew Point Humidity Winds Wind Gusts Pressure Precip Precip Rate Daily Precip Total
12:04 AM 46.9°F8.3°C 37.8°F3.2°C 70% 6.0 mph NW9.7 kmh NW 7.4 mph11.9 kmh 29.78 in1008.5 mb 0.07 in1.8 mm 1.05 in26.7 mm 0.01 in0.3 mm
12:09 AM 46.4°F8.0°C 38.7°F3.7°C 74% 6.5 mph NNW10.5 kmh NNW 15.0 mph24.1 kmh 29.78 in1008.5 mb 0.28 in7.1 mm 2.52 in64.0 mm 0.05 in1.3 mm
12:14 AM 45.7°F7.6°C 38.3°F3.5°C 75% 4.9 mph NNE7.9 kmh NNE 7.4 mph11.9 kmh 29.76 in1007.8 mb 0.02 in0.5 mm 0.00 in0.0 mm 0.07 in1.8 mm
12:19 AM 45.0°F7.2°C 37.9°F3.3°C 76% 4.3 mph E6.9 kmh E 7.4 mph11.9 kmh 29.74 in1007.1 mb 0.04 in1.0 mm 0.24 in6.1 mm 0.09 in2.3 mm
12:24 AM 44.1°F6.7°C 37.0°F2.8°C 76% 1.3 mph E2.1 kmh E 2.5 mph4.0 kmh 29.73 in1006.8 mb 0.04 in1.0 mm 0.00 in0.0 mm 0.09 in2.3 mm
12:29 AM 43.3°F6.3°C 36.3°F2.4°C 76% 7.6 mph W12.2 kmh W 9.8 mph15.8 kmh 29.72 in1006.4 mb 0.04 in1.0 mm 0.00 in0.0 mm 0.09 in2.3 mm
12:34 AM 42.8°F6.0°C 35.8°F2.1°C 76% 3.6 mph S5.8 kmh S 4.9 mph7.9 kmh 29.72 in1006.4 mb 0.04 in1.0 mm 0.00 in0.0 mm 0.09 in2.3 mm
12:39 AM 42.3°F5.7°C 35.2°F1.8°C 76% 10.5 mph NW16.9 kmh NW 15.0 mph24.1 kmh 29.73 in1006.8 mb 0.04 in1.0 mm 0.00 in0.0 mm 0.09 in2.3 mm
12:44 AM 42.1°F5.6°C 34.7°F1.5°C 75% 2.5 mph NW4.0 kmh NW 4.9 mph7.9 kmh 29.72 in1006.4 mb 0.04 in1.0 mm 0.00 in0.0 mm 0.09 in2.3 mm
12:49 AM 41.9°F5.5°C 34.2°F1.2°C 74% 7.6 mph SW12.2 kmh SW 15.0 mph24.1 kmh 29.72 in1006.4 mb 0.04 in1.0 mm 0.00 in0.0 mm 0.09 in2.3 mm
12:54 AM 41.7°F5.4°C 33.8°F1.0°C 73% 8.1 mph NE13.0 kmh NE 9.8 mph15.8 kmh 29.73 in1006.8 mb 0.04 in1.0 mm 0.00 in0.0 mm 0.09 in2.3 mm
01:04 AM 41.7°F5.4°C 33.8°F1.0°C 73% 5.8 mph NE9.3 kmh NE 9.8 mph15.8 kmh 29.74 in1007.1 mb 0.00 in0.0 mm 0.00 in0.0 mm 0.30 in7.6 mm
01:09 AM 41.7°F5.4°C 33.8°F1.0°C 73% 3.4 mph ENE5.5 kmh ENE 4.9 mph7.9 kmh 29.75 in1007.5 mb 0.00 in0.0 mm 0.00 in0.0 mm 0.30 in7.6 mm
01:14 AM 41.7°F5.4°C 33.4°F0.8°C 72% 4.3 mph E6.9 kmh E 7.4 mph11.9 kmh 29.75 in1007.5 mb 0.00 in0.0 mm 0.00 in0.0 mm 0.30 in7.6 mm
01:19 AM 41.7°F5.4°C 33.4°F0.8°C 72% 5.1 mph NW8.2 kmh NW 7.4 mph11.9 kmh 29.76 in1007.8 mb 0.00 in0.0 mm 0.00 in0.0 mm 0.30 in7.6 mm
01:24 AM 41.7°F5.4°C 33.4°F0.8°C 72% 6.5 mph NW10.5 kmh NW 7.4 mph11.9 kmh 29.78 in1008.5 mb 0.00 in0.0 mm 0.00 in0.0 mm 0.30 in7.6 mm
01:29 AM 41.7°F5.4°C 33.1°F0.6°C 71% 3.4 mph NE5.5 kmh NE 4.9 mph7.9 kmh 29.78 in1008.5 mb 0.00 in0.0 mm 0.00 in0.0 mm 0.30 in7.6 mm
01:34 AM 41.7°F5.4°C 32.7°F0.4°C 70% 7.4 mph N11.9 kmh N 9.8 mph15.8 kmh 29.77 in1008.1 mb 0.00 in0.0 mm 0.00 in0.0 mm 0.30 in7.6 mm
01:39 AM 41.7°F5.4°C 32.4°F0.2°C 69% 4.5 mph N7.2 kmh N 4.9 mph7.9 kmh 29.78 in1008.5 mb 0.00 in0.0 mm 0.00 in0.0 mm 0.30 in7.6 mm
01:44 AM 41.7°F5.4°C 32.0°F0.0°C 68% 7.6 mph N12.2 kmh N 12.3 mph19.8 kmh 29.79 in1008.8 mb 0.00 in0.0 mm 0.00 in0.0 mm 0.30 in7.6 mm
01:49 AM 41.9°F5.5°C 32.2°F0.1°C 68% 6.7 mph NE10.8 kmh NE 9.8 mph15.8 kmh 29.78 in1008.5 mb 0.00 in0.0 mm 0.00 in0.0 mm 0.30 in7.6 mm
01:54 AM 41.9°F5.5°C 31.8°F-0.1°C 67% 5.1 mph NE8.2 kmh NE 9.8 mph15.8 kmh 29.78 in1008.5 mb 0.00 in0.0 mm 0.00 in0.0 mm 0.30 in7.6 mm
01:59 AM 41.9°F5.5°C 31.5°F-0.3°C 66% 2.0 mph SSE3.2 kmh SSE 4.9 mph7.9 kmh 29.78 in1008.5 mb 0.00 in0.0 mm 0.00 in0.0 mm 0.30 in7.6 mm
02:04 AM 41.9°F5.5°C 31.1°F-0.5°C 65% 6.7 mph NW10.8 kmh NW 9.8 mph15.8 kmh 29.78 in1008.5 mb 0.00 in0.0 mm 0.00 in0.0 mm 0.30 in7.6 mm
02:09 AM 41.9°F5.5°C 30.2°F-1.0°C 63% 6.5 mph SE10.5 kmh SE 9.8 mph15.8 kmh 29.78 in1008.5 mb 0.00 in0.0 mm 0.00 in0.0 mm 0.30 in7.6 mm
02:14 AM 42.1°F5.6°C 29.7°F-1.3°C 61% 4.5 mph NE7.2 kmh NE 7.4 mph11.9 kmh 29.77 in1008.1 mb 0.00 in0.0 mm 0.00 in0.0 mm 0.30 in7.6 mm
02:19 AM 41.9°F5.5°C 29.1°F-1.6°C 60% 3.6 mph E5.8 kmh E 4.9 mph7.9 kmh 29.78 in1008.5 mb 0.00 in0.0 mm 0.00 in0.0 mm 0.30 in7.6 mm
02:24 AM 41.9°F5.5°C 28.2°F-2.1°C 58% 9.8 mph ENE15.8 kmh ENE 15.0 mph24.1 kmh 29.79 in1008.8 mb 0.00 in0.0 mm 0.00 in0.0 mm 0.30 in7.6 mm
02:29 AM 41.9°F5.5°C 27.3°F-2.6°C 56% 4.3 mph NE6.9 kmh NE 7.4 mph11.9 kmh 29.78 in1008.5 mb 0.00 in0.0 mm 0.00 in0.0 mm 0.30 in7.6 mm
02:34 AM 41.9°F5.5°C 27.3°F-2.6°C 56% 8.9 mph NNE14.3 kmh NNE 9.8 mph15.8 kmh 29.78 in1008.5 mb 0.00 in0.0 mm 0.00 in0.0 mm 0.30 in7.6 mm
02:39 AM 41.9°F5.5°C 27.0°F-2.8°C 55% 2.5 mph NNE4.0 kmh NNE 4.9 mph7.9 kmh 29.78 in1008.5 mb 0.00 in0.0 mm 0.00 in0.0 mm 0.30 in7.6 mm
02:44 AM 41.9°F5.5°C 27.0°F-2.8°C 55% 6.0 mph NE9.7 kmh NE 7.4 mph11.9 kmh 29.78 in1008.5 mb 0.00 in0.0 mm 0.00 in0.0 mm 0.30 in7.6 mm
02:49 AM 41.9°F5.5°C 27.0°F-2.8°C 55% 3.6 mph NW5.8 kmh NW 7.4 mph11.9 kmh 29.79 in1008.8 mb 0.00 in0.0 mm 0.00 in0.0 mm 0.30 in7.6 mm
02:54 AM 41.9°F5.5°C 26.1°F-3.3°C 53% 1.3 mph NE2.1 kmh NE 2.5 mph4.0 kmh 29.79 in1008.8 mb 0.00 in0.0 mm 0.00 in0.0 mm 0.30 in7.6 mm
02:59 AM 41.9°F5.5°C 26.1°F-3.3°C 53% 4.0 mph NNE6.4 kmh NNE 4.9 mph7.9 kmh 29.82 in1009.8 mb 0.00 in0.0 mm 0.00 in0.0 mm 0.30 in7.6 mm
03:04 AM 41.9°F5.5°C 25.2°F-3.8°C 51% 6.5 mph N10.5 kmh N 9.8 mph15.8 kmh 29.83 in1010.2 mb 0.00 in0.0 mm 0.00 in0.0 mm 0.30 in7.6 mm
03:09 AM 41.9°F5.5°C 25.2°F-3.8°C 51% 2.5 mph ESE4.0 kmh ESE 4.9 mph7.9 kmh 29.82 in1009.8 mb 0.00 in0.0 mm 0.00 in0.0 mm 0.30 in7.6 mm
03:14 AM 41.9°F5.5°C 25.2°F-3.8°C 51% 4.3 mph NE6.9 kmh NE 7.4 mph11.9 kmh 29.82 in1009.8 mb 0.00 in0.0 mm 0.00 in0.0 mm 0.30 in7.6 mm
03:19 AM 41.9°F5.5°C 24.6°F-4.1°C 50% 11.4 mph N18.3 kmh N 19.9 mph32.0 kmh 29.83 in1010.2 mb 0.00 in0.0 mm 0.00 in0.0 mm 0.30 in7.6 mm
03:24 AM 41.9°F5.5°C 22.6°F-5.2°C 46% 4.9 mph WNW7.9 kmh WNW 4.9 mph7.9 kmh 29.82 in1009.8 mb 0.00 in0.0 mm 0.00 in0.0 mm 0.30 in7.6 mm
03:29 AM 41.9°F5.5°C 22.1°F-5.5°C 45% 2.7 mph NE4.3 kmh NE 4.9 mph7.9 kmh 29.83 in1010.2 mb 0.00 in0.0 mm 0.00 in0.0 mm 0.30 in7.6 mm
03:34 AM 41.7°F5.4°C 20.8°F-6.2°C 43% 8.9 mph N14.3 kmh N 15.0 mph24.1 kmh 29.83 in1010.2 mb 0.00 in0.0 mm 0.00 in0.0 mm 0.30 in7.6 mm
03:39 AM 41.7°F5.4°C 19.8°F-6.8°C 41% 4.0 mph NNE6.4 kmh NNE 4.9 mph7.9 kmh 29.84 in1010.5 mb 0.00 in0.0 mm 0.00 in0.0 mm 0.30 in7.6 mm
03:44 AM 41.7°F5.4°C 20.3°F-6.5°C 42% 8.7 mph E14.0 kmh E 12.3 mph19.8 kmh 29.84 in1010.5 mb 0.00 in0.0 mm 0.00 in0.0 mm 0.30 in7.6 mm
03:49 AM 41.5°F5.3°C 19.0°F-7.2°C 40% 3.6 mph N5.8 kmh N 4.9 mph7.9 kmh 29.85 in1010.8 mb 0.00 in0.0 mm 0.00 in0.0 mm 0.30 in7.6 mm
03:54 AM 41.5°F5.3°C 19.0°F-7.2°C 40% 8.1 mph NW13.0 kmh NW 9.8 mph15.8 kmh 29.84 in1010.5 mb 0.00 in0.0 mm 0.00 in0.0 mm 0.30 in7.6 mm
03:59 AM 41.5°F5.3°C 19.6°F-6.9°C 41% 4.0 mph NW6.4 kmh NW 4.9 mph7.9 kmh 29.84 in1010.5 mb 0.00 in0.0 mm 0.00 in0.0 mm 0.30 in7.6 mm
04:04 AM 41.5°F5.3°C 19.6°F-6.9°C 41% 7.6 mph NE12.2 kmh NE 12.3 mph19.8 kmh 29.83 in1010.2 mb 0.00 in0.0 mm 0.00 in0.0 mm 0.30 in7.6 mm
04:09 AM 41.4°F5.2°C 19.9°F-6.7°C 42% 1.8 mph WSW2.9 kmh WSW 4.9 mph7.9 kmh 29.83 in1010.2 mb 0.00 in0.0 mm 0.00 in0.0 mm 0.30 in7.6 mm
04:14 AM 41.4°F5.2°C 18.9°F-7.3°C 40% 6.0 mph E9.7 kmh E 9.8 mph15.8 kmh 29.83 in1010.2 mb 0.00 in0.0 mm 0.00 in0.0 mm 0.30 in7.6 mm
04:19 AM 41.2°F5.1°C 18.7°F-7.4°C 40% 9.2 mph SSW14.8 kmh SSW 15.0 mph24.1 kmh 29.84 in1010.5 mb 0.00 in0.0 mm 0.00 in0.0 mm 0.30 in7.6 mm
04:23 AM 41.2°F5.1°C 18.7°F-7.4°C 40% 2.9 mph SW4.7 kmh SW 4.9 mph7.9 kmh 29.84 in1010.5 mb 0.00 in0.0 mm 0.00 in0.0 mm 0.30 in7.6 mm
04:29 AM 41.2°F5.1°C 18.1°F-7.7°C 39% 11.4 mph N18.3 kmh N 17.4 mph28.0 kmh 29.84 in1010.5 mb 0.00 in0.0 mm 0.00 in0.0 mm 0.30 in7.6 mm
04:34 AM 41.2°F5.1°C 18.1°F-7.7°C 39% 4.9 mph SE7.9 kmh SE 7.4 mph11.9 kmh 29.84 in1010.5 mb 0.00 in0.0 mm 0.00 in0.0 mm 0.30 in7.6 mm
04:39 AM 41.2°F5.1°C 18.1°F-7.7°C 39% 11.4 mph N18.3 kmh N 15.0 mph24.1 kmh 29.84 in1010.5 mb 0.00 in0.0 mm 0.00 in0.0 mm 0.30 in7.6 mm
04:44 AM 41.0°F5.0°C 18.0°F-7.8°C 39% 6.5 mph SW10.5 kmh SW 9.8 mph15.8 kmh 29.83 in1010.2 mb 0.00 in0.0 mm 0.00 in0.0 mm 0.30 in7.6 mm
04:49 AM 41.0°F5.0°C 18.5°F-7.5°C 40% 8.1 mph NW13.0 kmh NW 12.3 mph19.8 kmh 29.83 in1010.2 mb 0.00 in0.0 mm 0.00 in0.0 mm 0.30 in7.6 mm
04:54 AM 41.0°F5.0°C 18.0°F-7.8°C 39% 5.1 mph N8.2 kmh N 9.8 mph15.8 kmh 29.83 in1010.2 mb 0.00 in0.0 mm 0.00 in0.0 mm 0.30 in7.6 mm
04:59 AM 41.0°F5.0°C 18.0°F-7.8°C 39% 9.2 mph NE14.8 kmh NE 12.3 mph19.8 kmh 29.83 in1010.2 mb 0.00 in0.0 mm 0.00 in0.0 mm 0.30 in7.6 mm
05:04 AM 40.8°F4.9°C 18.3°F-7.6°C 40% 9.6 mph NE15.4 kmh NE 12.3 mph19.8 kmh 29.83 in1010.2 mb 0.00 in0.0 mm 0.00 in0.0 mm 0.30 in7.6 mm
05:09 AM 40.8°F4.9°C 18.3°F-7.6°C 40% 7.6 mph N12.2 kmh N 9.8 mph15.8 kmh 29.82 in1009.8 mb 0.00 in0.0 mm 0.00 in0.0 mm 0.30 in7.6 mm
05:14 AM 40.8°F4.9°C 18.3°F-7.6°C 40% 7.6 mph NW12.2 kmh NW 12.3 mph19.8 kmh 29.83 in1010.2 mb 0.00 in0.0 mm 0.00 in0.0 mm 0.30 in7.6 mm
05:19 AM 40.6°F4.8°C 18.1°F-7.7°C 40% 7.6 mph N12.2 kmh N 9.8 mph15.8 kmh 29.83 in1010.2 mb 0.00 in0.0 mm 0.00 in0.0 mm 0.30 in7.6 mm
05:24 AM 40.6°F4.8°C 18.1°F-7.7°C 40% 5.1 mph NNW8.2 kmh NNW 7.4 mph11.9 kmh 29.85 in1010.8 mb 0.00 in0.0 mm 0.00 in0.0 mm 0.30 in7.6 mm
05:29 AM 40.6°F4.8°C 17.6°F-8.0°C 39% 13.6 mph WNW21.9 kmh WNW 19.9 mph32.0 kmh 29.85 in1010.8 mb 0.00 in0.0 mm 0.00 in0.0 mm 0.30 in7.6 mm
05:34 AM 40.6°F4.8°C 16.3°F-8.7°C 37% 11.9 mph NW19.2 kmh NW 15.0 mph24.1 kmh 29.86 in1011.2 mb 0.00 in0.0 mm 0.00 in0.0 mm 0.30 in7.6 mm
05:39 AM 40.6°F4.8°C 15.8°F-9.0°C 36% 6.7 mph N10.8 kmh N 12.3 mph19.8 kmh 29.86 in1011.2 mb 0.00 in0.0 mm 0.00 in0.0 mm 0.30 in7.6 mm
05:44 AM 40.5°F4.7°C 16.2°F-8.8°C 37% 7.6 mph NNE12.2 kmh NNE 9.8 mph15.8 kmh 29.88 in1011.9 mb 0.00 in0.0 mm 0.00 in0.0 mm 0.30 in7.6 mm
05:50 AM 40.5°F4.7°C 16.2°F-8.8°C 37% 16.1 mph N25.9 kmh N 19.9 mph32.0 kmh 29.88 in1011.9 mb 0.00 in0.0 mm 0.00 in0.0 mm 0.30 in7.6 mm
05:54 AM 40.5°F4.7°C 16.9°F-8.4°C 38% 6.5 mph NW10.5 kmh NW 9.8 mph15.8 kmh 29.88 in1011.9 mb 0.00 in0.0 mm 0.00 in0.0 mm 0.30 in7.6 mm
05:59 AM 40.5°F4.7°C 15.6°F-9.1°C 36% 9.8 mph E15.8 kmh E 15.0 mph24.1 kmh 29.88 in1011.9 mb 0.00 in0.0 mm 0.00 in0.0 mm 0.30 in7.6 mm
06:04 AM 40.5°F4.7°C 16.2°F-8.8°C 37% 11.4 mph NW18.3 kmh NW 15.0 mph24.1 kmh 29.88 in1011.9 mb 0.00 in0.0 mm 0.00 in0.0 mm 0.30 in7.6 mm
06:09 AM 40.3°F4.6°C 16.7°F-8.5°C 38% 9.2 mph NE14.8 kmh NE 15.0 mph24.1 kmh 29.88 in1011.9 mb 0.00 in0.0 mm 0.00 in0.0 mm 0.30 in7.6 mm
06:14 AM 40.3°F4.6°C 16.2°F-8.8°C 37% 9.2 mph NW14.8 kmh NW 12.3 mph19.8 kmh 29.88 in1011.9 mb 0.00 in0.0 mm 0.00 in0.0 mm 0.30 in7.6 mm
06:19 AM 40.3°F4.6°C 15.4°F-9.2°C 36% 8.3 mph NNW13.4 kmh NNW 12.3 mph19.8 kmh 29.88 in1011.9 mb 0.00 in0.0 mm 0.00 in0.0 mm 0.30 in7.6 mm
06:24 AM 40.1°F4.5°C 16.5°F-8.6°C 38% 3.6 mph SE5.8 kmh SE 4.9 mph7.9 kmh 29.88 in1011.9 mb 0.00 in0.0 mm 0.00 in0.0 mm 0.30 in7.6 mm
06:29 AM 40.1°F4.5°C 17.1°F-8.3°C 39% 7.4 mph NW11.9 kmh NW 9.8 mph15.8 kmh 29.88 in1011.9 mb 0.00 in0.0 mm 0.00 in0.0 mm 0.30 in7.6 mm
06:34 AM 39.9°F4.4°C 16.3°F-8.7°C 38% 4.5 mph NW7.2 kmh NW 7.4 mph11.9 kmh 29.88 in1011.9 mb 0.00 in0.0 mm 0.00 in0.0 mm 0.30 in7.6 mm
06:39 AM 39.9°F4.4°C 15.8°F-9.0°C 37% 6.7 mph NNE10.8 kmh NNE 9.8 mph15.8 kmh 29.88 in1011.9 mb 0.00 in0.0 mm 0.00 in0.0 mm 0.30 in7.6 mm
06:44 AM 39.7°F4.3°C 16.9°F-8.4°C 39% 4.3 mph E6.9 kmh E 4.9 mph7.9 kmh 29.88 in1011.9 mb 0.00 in0.0 mm 0.00 in0.0 mm 0.30 in7.6 mm
06:49 AM 39.6°F4.2°C 16.0°F-8.9°C 38% 2.9 mph SW4.7 kmh SW 4.9 mph7.9 kmh 29.88 in1011.9 mb 0.00 in0.0 mm 0.00 in0.0 mm 0.30 in7.6 mm
06:54 AM 39.6°F4.2°C 16.0°F-8.9°C 38% 11.4 mph NNE18.3 kmh NNE 15.0 mph24.1 kmh 29.89 in1012.2 mb 0.00 in0.0 mm 0.00 in0.0 mm 0.30 in7.6 mm
06:59 AM 39.4°F4.1°C 16.5°F-8.6°C 39% 10.7 mph N17.2 kmh N 12.3 mph19.8 kmh 29.89 in1012.2 mb 0.00 in0.0 mm 0.00 in0.0 mm 0.30 in7.6 mm
07:04 AM 39.4°F4.1°C 17.1°F-8.3°C 40% 6.0 mph N9.7 kmh N 7.4 mph11.9 kmh 29.89 in1012.2 mb 0.00 in0.0 mm 0.00 in0.0 mm 0.30 in7.6 mm
07:09 AM 39.2°F4.0°C 16.9°F-8.4°C 40% 5.8 mph NE9.3 kmh NE 12.3 mph19.8 kmh 29.90 in1012.5 mb 0.00 in0.0 mm 0.00 in0.0 mm 0.30 in7.6 mm
07:14 AM 39.2°F4.0°C 16.9°F-8.4°C 40% 1.8 mph NE2.9 kmh NE 2.5 mph4.0 kmh 29.90 in1012.5 mb 0.00 in0.0 mm 0.00 in0.0 mm 0.30 in7.6 mm
07:19 AM 39.0°F3.9°C 16.7°F-8.5°C 40% 5.6 mph NW9.0 kmh NW 9.8 mph15.8 kmh 29.90 in1012.5 mb 0.00 in0.0 mm 0.00 in0.0 mm 0.30 in7.6 mm
07:24 AM 38.8°F3.8°C 17.2°F-8.2°C 41% 6.0 mph NE9.7 kmh NE 7.4 mph11.9 kmh 29.91 in1012.9 mb 0.00 in0.0 mm 0.00 in0.0 mm 0.30 in7.6 mm
07:29 AM 38.7°F3.7°C 16.3°F-8.7°C 40% 9.2 mph N14.8 kmh N 15.0 mph24.1 kmh 29.91 in1012.9 mb 0.00 in0.0 mm 0.00 in0.0 mm 0.30 in7.6 mm
07:34 AM 38.5°F3.6°C 15.6°F-9.1°C 39% 2.7 mph ENE4.3 kmh ENE 4.9 mph7.9 kmh 29.91 in1012.9 mb 0.00 in0.0 mm 0.00 in0.0 mm 0.30 in7.6 mm
07:39 AM 38.5°F3.6°C 16.3°F-8.7°C 40% 5.6 mph NW9.0 kmh NW 7.4 mph11.9 kmh 29.91 in1012.9 mb 0.00 in0.0 mm 0.00 in0.0 mm 0.30 in7.6 mm
07:44 AM 38.3°F3.5°C 16.2°F-8.8°C 40% 6.5 mph NNW10.5 kmh NNW 9.8 mph15.8 kmh 29.93 in1013.5 mb 0.00 in0.0 mm 0.00 in0.0 mm 0.30 in7.6 mm
07:49 AM 38.1°F3.4°C 15.4°F-9.2°C 39% 3.4 mph WSW5.5 kmh WSW 7.4 mph11.9 kmh 29.94 in1013.9 mb 0.00 in0.0 mm 0.00 in0.0 mm 0.30 in7.6 mm
07:54 AM 37.9°F3.3°C 15.8°F-9.0°C 40% 2.7 mph NNW4.3 kmh NNW 4.9 mph7.9 kmh 29.93 in1013.5 mb 0.00 in0.0 mm 0.00 in0.0 mm 0.30 in7.6 mm
07:59 AM 37.8°F3.2°C 15.1°F-9.4°C 39% 4.0 mph SSE6.4 kmh SSE 7.4 mph11.9 kmh 29.93 in1013.5 mb 0.00 in0.0 mm 0.00 in0.0 mm 0.30 in7.6 mm
08:04 AM 37.6°F3.1°C 14.4°F-9.8°C 38% 4.9 mph NE7.9 kmh NE 7.4 mph11.9 kmh 29.95 in1014.2 mb 0.00 in0.0 mm 0.00 in0.0 mm 0.30 in7.6 mm
08:09 AM 37.6°F3.1°C 14.9°F-9.5°C 39% 7.2 mph NW11.6 kmh NW 9.8 mph15.8 kmh 29.95 in1014.2 mb 0.00 in0.0 mm 0.00 in0.0 mm 0.30 in7.6 mm
08:14 AM 37.6°F3.1°C 15.4°F-9.2°C 40% 8.1 mph NNE13.0 kmh NNE 9.8 mph15.8 kmh 29.94 in1013.9 mb 0.00 in0.0 mm 0.00 in0.0 mm 0.30 in7.6 mm
08:19 AM 37.4°F3.0°C 15.3°F-9.3°C 40% 6.0 mph N9.7 kmh N 9.8 mph15.8 kmh 29.93 in1013.5 mb 0.00 in0.0 mm 0.00 in0.0 mm 0.30 in7.6 mm
08:24 AM 37.4°F3.0°C 15.8°F-9.0°C 41% 4.5 mph N7.2 kmh N 7.4 mph11.9 kmh 29.93 in1013.5 mb 0.00 in0.0 mm 0.00 in0.0 mm 0.30 in7.6 mm
08:29 AM 37.2°F2.9°C 14.5°F-9.7°C 39% 9.2 mph NNE14.8 kmh NNE 9.8 mph15.8 kmh 29.93 in1013.5 mb 0.00 in0.0 mm 0.00 in0.0 mm 0.30 in7.6 mm
08:34 AM 37.2°F2.9°C 15.1°F-9.4°C 40% 4.0 mph NNE6.4 kmh NNE 7.4 mph11.9 kmh 29.93 in1013.5 mb 0.00 in0.0 mm 0.00 in0.0 mm 0.30 in7.6 mm
08:39 AM 37.2°F2.9°C 15.1°F-9.4°C 40% 11.4 mph 18.3 kmh 15.0 mph24.1 kmh 29.93 in1013.5 mb 0.00 in0.0 mm 0.00 in0.0 mm 0.30 in7.6 mm
08:44 AM 37.2°F2.9°C 14.5°F-9.7°C 39% 8.3 mph N13.4 kmh N 9.8 mph15.8 kmh 29.93 in1013.5 mb 0.00 in0.0 mm 0.00 in0.0 mm 0.30 in7.6 mm
08:49 AM 37.2°F2.9°C 15.1°F-9.4°C 40% 2.0 mph W3.2 kmh W 2.5 mph4.0 kmh 29.93 in1013.5 mb 0.00 in0.0 mm 0.00 in0.0 mm 0.30 in7.6 mm
08:54 AM 37.2°F2.9°C 15.1°F-9.4°C 40% 5.6 mph N9.0 kmh N 7.4 mph11.9 kmh 29.94 in1013.9 mb 0.00 in0.0 mm 0.00 in0.0 mm 0.30 in7.6 mm
08:59 AM 37.2°F2.9°C 15.1°F-9.4°C 40% 6.5 mph N10.5 kmh N 7.4 mph11.9 kmh 29.93 in1013.5 mb 0.00 in0.0 mm 0.00 in0.0 mm 0.30 in7.6 mm
09:04 AM 37.2°F2.9°C 15.1°F-9.4°C 40% 4.5 mph N7.2 kmh N 4.9 mph7.9 kmh 29.94 in1013.9 mb 0.00 in0.0 mm 0.00 in0.0 mm 0.30 in7.6 mm
09:09 AM 37.2°F2.9°C 14.0°F-10.0°C 38% 8.1 mph NE13.0 kmh NE 12.3 mph19.8 kmh 29.94 in1013.9 mb 0.00 in0.0 mm 0.00 in0.0 mm 0.30 in7.6 mm
09:14 AM 37.4°F3.0°C 14.7°F-9.6°C 39% 7.6 mph N12.2 kmh N 9.8 mph15.8 kmh 29.94 in1013.9 mb 0.00 in0.0 mm 0.00 in0.0 mm 0.30 in7.6 mm
09:19 AM 37.4°F3.0°C 14.2°F-9.9°C 38% 2.5 mph NE4.0 kmh NE 2.5 mph4.0 kmh 29.94 in1013.9 mb 0.00 in0.0 mm 0.00 in0.0 mm 0.30 in7.6 mm
09:24 AM 37.4°F3.0°C 14.2°F-9.9°C 38% 4.9 mph NNW7.9 kmh NNW 7.4 mph11.9 kmh 29.95 in1014.2 mb 0.00 in0.0 mm 0.00 in0.0 mm 0.30 in7.6 mm
09:29 AM 37.6°F3.1°C 14.4°F-9.8°C 38% 6.7 mph WSW10.8 kmh WSW 9.8 mph15.8 kmh 29.95 in1014.2 mb 0.00 in0.0 mm 0.00 in0.0 mm 0.30 in7.6 mm
09:34 AM 37.6°F3.1°C 13.6°F-10.2°C 37% 4.3 mph NNW6.9 kmh NNW 7.4 mph11.9 kmh 29.95 in1014.2 mb 0.00 in0.0 mm 0.00 in0.0 mm 0.30 in7.6 mm
09:39 AM 37.6°F3.1°C 14.4°F-9.8°C 38% 0.2 mph E0.3 kmh E 2.5 mph4.0 kmh 29.95 in1014.2 mb 0.00 in0.0 mm 0.00 in0.0 mm 0.30 in7.6 mm
09:44 AM 37.6°F3.1°C 14.9°F-9.5°C 39% 4.3 mph NNW6.9 kmh NNW 4.9 mph7.9 kmh 29.95 in1014.2 mb 0.00 in0.0 mm 0.00 in0.0 mm 0.30 in7.6 mm
09:49 AM 37.6°F3.1°C 14.9°F-9.5°C 39% 7.2 mph N11.6 kmh N 9.8 mph15.8 kmh 29.95 in1014.2 mb 0.00 in0.0 mm 0.00 in0.0 mm 0.30 in7.6 mm
09:54 AM 37.6°F3.1°C 14.9°F-9.5°C 39% 5.6 mph WNW9.0 kmh WNW 7.4 mph11.9 kmh 29.95 in1014.2 mb 0.00 in0.0 mm 0.00 in0.0 mm 0.30 in7.6 mm
09:59 AM 37.6°F3.1°C 14.4°F-9.8°C 38% 4.3 mph N6.9 kmh N 7.4 mph11.9 kmh 29.95 in1014.2 mb 0.00 in0.0 mm 0.00 in0.0 mm 0.30 in7.6 mm
10:04 AM 37.4°F3.0°C 14.7°F-9.6°C 39% 6.5 mph N10.5 kmh N 9.8 mph15.8 kmh 29.95 in1014.2 mb 0.00 in0.0 mm 0.00 in0.0 mm 0.30 in7.6 mm
10:09 AM 37.4°F3.0°C 15.3°F-9.3°C 40% 8.7 mph NNW14.0 kmh NNW 15.0 mph24.1 kmh 29.95 in1014.2 mb 0.00 in0.0 mm 0.00 in0.0 mm 0.30 in7.6 mm
10:14 AM 37.2°F2.9°C 14.5°F-9.7°C 39% 7.2 mph N11.6 kmh N 9.8 mph15.8 kmh 29.95 in1014.2 mb 0.00 in0.0 mm 0.00 in0.0 mm 0.30 in7.6 mm
10:19 AM 37.2°F2.9°C 14.5°F-9.7°C 39% 2.9 mph E4.7 kmh E 4.9 mph7.9 kmh 29.96 in1014.6 mb 0.00 in0.0 mm 0.00 in0.0 mm 0.30 in7.6 mm
10:24 AM 37.0°F2.8°C 14.9°F-9.5°C 40% 7.6 mph NW12.2 kmh NW 9.8 mph15.8 kmh 29.96 in1014.6 mb 0.00 in0.0 mm 0.00 in0.0 mm 0.30 in7.6 mm
10:29 AM 36.9°F2.7°C 14.7°F-9.6°C 40% 3.6 mph ENE5.8 kmh ENE 4.9 mph7.9 kmh 29.96 in1014.6 mb 0.00 in0.0 mm 0.00 in0.0 mm 0.30 in7.6 mm
10:34 AM 37.0°F2.8°C 14.9°F-9.5°C 40% 1.8 mph NE2.9 kmh NE 2.5 mph4.0 kmh 29.96 in1014.6 mb 0.00 in0.0 mm 0.00 in0.0 mm 0.30 in7.6 mm
10:39 AM 37.2°F2.9°C 14.5°F-9.7°C 39% 3.4 mph NW5.5 kmh NW 4.9 mph7.9 kmh 29.96 in1014.6 mb 0.00 in0.0 mm 0.00 in0.0 mm 0.30 in7.6 mm
10:44 AM 37.6°F3.1°C 13.6°F-10.2°C 37% 7.6 mph N12.2 kmh N 9.8 mph15.8 kmh 29.96 in1014.6 mb 0.00 in0.0 mm 0.00 in0.0 mm 0.30 in7.6 mm
10:49 AM 38.1°F3.4°C 14.7°F-9.6°C 38% 5.8 mph WNW9.3 kmh WNW 7.4 mph11.9 kmh 29.96 in1014.6 mb 0.00 in0.0 mm 0.00 in0.0 mm 0.30 in7.6 mm
10:54 AM 38.5°F3.6°C 14.5°F-9.7°C 37% 4.9 mph NNW7.9 kmh NNW 7.4 mph11.9 kmh 29.95 in1014.2 mb 0.00 in0.0 mm 0.00 in0.0 mm 0.30 in7.6 mm
10:59 AM 39.0°F3.9°C 14.9°F-9.5°C 37% 7.4 mph N11.9 kmh N 9.8 mph15.8 kmh 29.96 in1014.6 mb 0.00 in0.0 mm 0.00 in0.0 mm 0.30 in7.6 mm
11:04 AM 39.4°F4.1°C 14.7°F-9.6°C 36% 6.0 mph NW9.7 kmh NW 9.8 mph15.8 kmh 29.96 in1014.6 mb 0.00 in0.0 mm 0.00 in0.0 mm 0.30 in7.6 mm
11:09 AM 39.7°F4.3°C 15.6°F-9.1°C 37% 2.9 mph NNE4.7 kmh NNE 4.9 mph7.9 kmh 29.95 in1014.2 mb 0.00 in0.0 mm 0.00 in0.0 mm 0.30 in7.6 mm
11:14 AM 40.1°F4.5°C 14.7°F-9.6°C 35% 5.6 mph NE9.0 kmh NE 7.4 mph11.9 kmh 29.95 in1014.2 mb 0.00 in0.0 mm 0.00 in0.0 mm 0.30 in7.6 mm
11:19 AM 40.5°F4.7°C 13.6°F-10.2°C 33% 11.2 mph N18.0 kmh N 15.0 mph24.1 kmh 29.95 in1014.2 mb 0.00 in0.0 mm 0.00 in0.0 mm 0.30 in7.6 mm
11:24 AM 41.0°F5.0°C 13.5°F-10.3°C 32% 5.8 mph NNE9.3 kmh NNE 7.4 mph11.9 kmh 29.95 in1014.2 mb 0.00 in0.0 mm 0.00 in0.0 mm 0.30 in7.6 mm
11:29 AM 41.5°F5.3°C 13.8°F-10.1°C 32% 5.8 mph NW9.3 kmh NW 9.8 mph15.8 kmh 29.95 in1014.2 mb 0.00 in0.0 mm 0.00 in0.0 mm 0.30 in7.6 mm
11:34 AM 42.1°F5.6°C 14.4°F-9.8°C 32% 4.5 mph WNW7.2 kmh WNW 7.4 mph11.9 kmh 29.95 in1014.2 mb 0.00 in0.0 mm 0.00 in0.0 mm 0.30 in7.6 mm
11:39 AM 42.6°F5.9°C 14.2°F-9.9°C 31% 8.1 mph N13.0 kmh N 12.3 mph19.8 kmh 29.95 in1014.2 mb 0.00 in0.0 mm 0.00 in0.0 mm 0.30 in7.6 mm
11:44 AM 43.2°F6.2°C 13.1°F-10.5°C 29% 5.8 mph NE9.3 kmh NE 7.4 mph11.9 kmh 29.95 in1014.2 mb 0.00 in0.0 mm 0.00 in0.0 mm 0.30 in7.6 mm
11:49 AM 43.3°F6.3°C 13.3°F-10.4°C 29% 9.2 mph N14.8 kmh N 17.4 mph28.0 kmh 29.94 in1013.9 mb 0.00 in0.0 mm 0.00 in0.0 mm 0.30 in7.6 mm
11:54 AM 43.9°F6.6°C 14.5°F-9.7°C 30% 7.2 mph NNE11.6 kmh NNE 9.8 mph15.8 kmh 29.95 in1014.2 mb 0.00 in0.0 mm 0.00 in0.0 mm 0.30 in7.6 mm
11:59 AM 44.4°F6.9°C 13.3°F-10.4°C 28% 3.4 mph NE5.5 kmh NE 4.9 mph7.9 kmh 29.94 in1013.9 mb 0.00 in0.0 mm 0.00 in0.0 mm 0.30 in7.6 mm
12:04 PM 44.8°F7.1°C 13.6°F-10.2°C 28% 7.4 mph N11.9 kmh N 12.3 mph19.8 kmh 29.94 in1013.9 mb 0.00 in0.0 mm 0.00 in0.0 mm 0.30 in7.6 mm
12:09 PM 45.0°F7.2°C 12.9°F-10.6°C 27% 4.5 mph NE7.2 kmh NE 7.4 mph11.9 kmh 29.94 in1013.9 mb 0.00 in0.0 mm 0.00 in0.0 mm 0.30 in7.6 mm
12:14 PM 45.3°F7.4°C 13.3°F-10.4°C 27% 2.0 mph NNE3.2 kmh NNE 2.5 mph4.0 kmh 29.95 in1014.2 mb 0.00 in0.0 mm 0.00 in0.0 mm 0.30 in7.6 mm
12:19 PM 45.7°F7.6°C 13.6°F-10.2°C 27% 2.7 mph NNW4.3 kmh NNW 4.9 mph7.9 kmh 29.95 in1014.2 mb 0.00 in0.0 mm 0.00 in0.0 mm 0.30 in7.6 mm
12:24 PM 46.2°F7.9°C 13.3°F-10.4°C 26% 4.0 mph S6.4 kmh S 7.4 mph11.9 kmh 29.95 in1014.2 mb 0.00 in0.0 mm 0.00 in0.0 mm 0.30 in7.6 mm
12:29 PM 46.8°F8.2°C 11.8°F-11.2°C 24% 8.3 mph NW13.4 kmh NW 12.3 mph19.8 kmh 29.95 in1014.2 mb 0.00 in0.0 mm 0.00 in0.0 mm 0.30 in7.6 mm
12:34 PM 47.1°F8.4°C 12.2°F-11.0°C 24% 4.9 mph NE7.9 kmh NE 7.4 mph11.9 kmh 29.95 in1014.2 mb 0.00 in0.0 mm 0.00 in0.0 mm 0.30 in7.6 mm
12:39 PM 47.5°F8.6°C 13.5°F-10.3°C 25% 6.7 mph NW10.8 kmh NW 9.8 mph15.8 kmh 29.94 in1013.9 mb 0.00 in0.0 mm 0.00 in0.0 mm 0.30 in7.6 mm
12:44 PM 47.8°F8.8°C 12.7°F-10.7°C 24% 11.2 mph NNE18.0 kmh NNE 17.4 mph28.0 kmh 29.94 in1013.9 mb 0.00 in0.0 mm 0.00 in0.0 mm 0.30 in7.6 mm
12:49 PM 48.0°F8.9°C 12.9°F-10.6°C 24% 4.5 mph WNW7.2 kmh WNW 7.4 mph11.9 kmh 29.95 in1014.2 mb 0.00 in0.0 mm 0.00 in0.0 mm 0.30 in7.6 mm
12:54 PM 48.2°F9.0°C 12.2°F-11.0°C 23% 9.2 mph NNW14.8 kmh NNW 15.0 mph24.1 kmh 29.94 in1013.9 mb 0.00 in0.0 mm 0.00 in0.0 mm 0.30 in7.6 mm
12:59 PM 48.2°F9.0°C 12.2°F-11.0°C 23% 7.2 mph NE11.6 kmh NE 12.3 mph19.8 kmh 29.94 in1013.9 mb 0.00 in0.0 mm 0.00 in0.0 mm 0.30 in7.6 mm
01:04 PM 48.4°F9.1°C 11.3°F-11.5°C 22% 6.7 mph NE10.8 kmh NE 9.8 mph15.8 kmh 29.93 in1013.5 mb 0.00 in0.0 mm 0.00 in0.0 mm 0.30 in7.6 mm
01:09 PM 48.6°F9.2°C 12.4°F-10.9°C 23% 3.4 mph 5.5 kmh 4.9 mph7.9 kmh 29.93 in1013.5 mb 0.00 in0.0 mm 0.00 in0.0 mm 0.30 in7.6 mm
01:14 PM 48.9°F9.4°C 11.7°F-11.3°C 22% 6.5 mph NNW10.5 kmh NNW 9.8 mph15.8 kmh 29.93 in1013.5 mb 0.00 in0.0 mm 0.00 in0.0 mm 0.30 in7.6 mm
01:19 PM 49.1°F9.5°C 11.8°F-11.2°C 22% 0.4 mph N0.6 kmh N 2.5 mph4.0 kmh 29.92 in1013.2 mb 0.00 in0.0 mm 0.00 in0.0 mm 0.30 in7.6 mm
01:24 PM 49.5°F9.7°C 10.0°F-12.2°C 20% 5.1 mph NNW8.2 kmh NNW 7.4 mph11.9 kmh 29.92 in1013.2 mb 0.00 in0.0 mm 0.00 in0.0 mm 0.30 in7.6 mm
01:29 PM 50.0°F10.0°C 9.3°F-12.6°C 19% 7.2 mph N11.6 kmh N 9.8 mph15.8 kmh 29.92 in1013.2 mb 0.00 in0.0 mm 0.00 in0.0 mm 0.30 in7.6 mm
01:34 PM 50.4°F10.2°C 10.8°F-11.8°C 20% 2.9 mph E4.7 kmh E 4.9 mph7.9 kmh 29.91 in1012.9 mb 0.00 in0.0 mm 0.00 in0.0 mm 0.30 in7.6 mm
01:39 PM 50.7°F10.4°C 12.2°F-11.0°C 21% 4.5 mph NW7.2 kmh NW 4.9 mph7.9 kmh 29.91 in1012.9 mb 0.00 in0.0 mm 0.00 in0.0 mm 0.30 in7.6 mm
01:44 PM 51.1°F10.6°C 10.2°F-12.1°C 19% 10.3 mph NNW16.6 kmh NNW 12.3 mph19.8 kmh 29.91 in1012.9 mb 0.00 in0.0 mm 0.00 in0.0 mm 0.30 in7.6 mm
01:49 PM 51.4°F10.8°C 11.7°F-11.3°C 20% 2.7 mph NNE4.3 kmh NNE 4.9 mph7.9 kmh 29.91 in1012.9 mb 0.00 in0.0 mm 0.00 in0.0 mm 0.30 in7.6 mm
01:54 PM 51.6°F10.9°C 9.5°F-12.5°C 18% 7.4 mph N11.9 kmh N 9.8 mph15.8 kmh 29.90 in1012.5 mb 0.00 in0.0 mm 0.00 in0.0 mm 0.30 in7.6 mm
01:59 PM 51.8°F11.0°C 10.9°F-11.7°C 19% 4.3 mph NW6.9 kmh NW 4.9 mph7.9 kmh 29.90 in1012.5 mb 0.00 in0.0 mm 0.00 in0.0 mm 0.30 in7.6 mm
02:04 PM 52.2°F11.2°C 12.4°F-10.9°C 20% 5.1 mph NNW8.2 kmh NNW 7.4 mph11.9 kmh 29.90 in1012.5 mb 0.00 in0.0 mm 0.00 in0.0 mm 0.30 in7.6 mm
02:09 PM 52.5°F11.4°C 12.6°F-10.8°C 20% 9.6 mph NW15.4 kmh NW 12.3 mph19.8 kmh 29.89 in1012.2 mb 0.00 in0.0 mm 0.00 in0.0 mm 0.30 in7.6 mm
02:14 PM 52.5°F11.4°C 13.6°F-10.2°C 21% 9.6 mph N15.4 kmh N 12.3 mph19.8 kmh 29.88 in1011.9 mb 0.00 in0.0 mm 0.00 in0.0 mm 0.30 in7.6 mm
02:19 PM 52.5°F11.4°C 12.6°F-10.8°C 20% 6.0 mph N9.7 kmh N 9.8 mph15.8 kmh 29.89 in1012.2 mb 0.00 in0.0 mm 0.00 in0.0 mm 0.30 in7.6 mm
02:24 PM 52.7°F11.5°C 12.7°F-10.7°C 20% 4.5 mph N7.2 kmh N 7.4 mph11.9 kmh 29.89 in1012.2 mb 0.00 in0.0 mm 0.00 in0.0 mm 0.30 in7.6 mm
02:29 PM 53.1°F11.7°C 11.8°F-11.2°C 19% 2.9 mph ENE4.7 kmh ENE 4.9 mph7.9 kmh 29.88 in1011.9 mb 0.00 in0.0 mm 0.00 in0.0 mm 0.30 in7.6 mm
02:34 PM 53.1°F11.7°C 11.8°F-11.2°C 19% 1.3 mph E2.1 kmh E 2.5 mph4.0 kmh 29.88 in1011.9 mb 0.00 in0.0 mm 0.00 in0.0 mm 0.30 in7.6 mm
02:39 PM 53.2°F11.8°C 10.8°F-11.8°C 18% 6.5 mph N10.5 kmh N 9.8 mph15.8 kmh 29.88 in1011.9 mb 0.00 in0.0 mm 0.00 in0.0 mm 0.30 in7.6 mm
02:44 PM 53.4°F11.9°C 10.9°F-11.7°C 18% 6.5 mph NE10.5 kmh NE 9.8 mph15.8 kmh 29.88 in1011.9 mb 0.00 in0.0 mm 0.00 in0.0 mm 0.30 in7.6 mm
02:49 PM 53.6°F12.0°C 11.1°F-11.6°C 18% 5.1 mph N8.2 kmh N 7.4 mph11.9 kmh 29.88 in1011.9 mb 0.00 in0.0 mm 0.00 in0.0 mm 0.30 in7.6 mm
02:54 PM 53.6°F12.0°C 12.4°F-10.9°C 19% 2.9 mph NW4.7 kmh NW 4.9 mph7.9 kmh 29.87 in1011.5 mb 0.00 in0.0 mm 0.00 in0.0 mm 0.30 in7.6 mm
02:59 PM 53.8°F12.1°C 13.6°F-10.2°C 20% 8.3 mph NW13.4 kmh NW 9.8 mph15.8 kmh 29.87 in1011.5 mb 0.00 in0.0 mm 0.00 in0.0 mm 0.30 in7.6 mm
03:04 PM 54.0°F12.2°C 12.6°F-10.8°C 19% 4.9 mph SW7.9 kmh SW 4.9 mph7.9 kmh 29.87 in1011.5 mb 0.00 in0.0 mm 0.00 in0.0 mm 0.30 in7.6 mm
03:09 PM 54.3°F12.4°C 12.9°F-10.6°C 19% 2.9 mph W4.7 kmh W 4.9 mph7.9 kmh 29.87 in1011.5 mb 0.00 in0.0 mm 0.00 in0.0 mm 0.30 in7.6 mm
03:14 PM 54.7°F12.6°C 14.4°F-9.8°C 20% 2.5 mph NE4.0 kmh NE 7.4 mph11.9 kmh 29.86 in1011.2 mb 0.00 in0.0 mm 0.00 in0.0 mm 0.30 in7.6 mm
03:19 PM 55.0°F12.8°C 12.4°F-10.9°C 18% 7.2 mph NNW11.6 kmh NNW 9.8 mph15.8 kmh 29.86 in1011.2 mb 0.00 in0.0 mm 0.00 in0.0 mm 0.30 in7.6 mm
03:24 PM 55.4°F13.0°C 12.6°F-10.8°C 18% 3.4 mph SE5.5 kmh SE 4.9 mph7.9 kmh 29.86 in1011.2 mb 0.00 in0.0 mm 0.00 in0.0 mm 0.30 in7.6 mm
03:29 PM 55.4°F13.0°C 11.3°F-11.5°C 17% 4.3 mph ENE6.9 kmh ENE 9.8 mph15.8 kmh 29.85 in1010.8 mb 0.00 in0.0 mm 0.00 in0.0 mm 0.30 in7.6 mm
03:34 PM 55.4°F13.0°C 12.6°F-10.8°C 18% Calm Calm -- 29.85 in1010.8 mb 0.00 in0.0 mm 0.00 in0.0 mm 0.30 in7.6 mm
03:39 PM 55.6°F13.1°C 10.0°F-12.2°C 16% 3.6 mph NE5.8 kmh NE 7.4 mph11.9 kmh 29.85 in1010.8 mb 0.00 in0.0 mm 0.00 in0.0 mm 0.30 in7.6 mm
03:44 PM 55.6°F13.1°C 14.0°F-10.0°C 19% 2.9 mph NE4.7 kmh NE 4.9 mph7.9 kmh 29.85 in1010.8 mb 0.00 in0.0 mm 0.00 in0.0 mm 0.30 in7.6 mm
03:49 PM 55.6°F13.1°C 11.5°F-11.4°C 17% 6.7 mph NE10.8 kmh NE 9.8 mph15.8 kmh 29.85 in1010.8 mb 0.00 in0.0 mm 0.00 in0.0 mm 0.30 in7.6 mm
03:54 PM 55.6°F13.1°C 11.5°F-11.4°C 17% 8.9 mph NNE14.3 kmh NNE 12.3 mph19.8 kmh 29.84 in1010.5 mb 0.00 in0.0 mm 0.00 in0.0 mm 0.30 in7.6 mm
03:59 PM 55.9°F13.3°C 13.1°F-10.5°C 18% 0.9 mph N1.4 kmh N 2.5 mph4.0 kmh 29.84 in1010.5 mb 0.00 in0.0 mm 0.00 in0.0 mm 0.30 in7.6 mm
04:04 PM 56.3°F13.5°C 13.3°F-10.4°C 18% 2.5 mph NE4.0 kmh NE 2.5 mph4.0 kmh 29.84 in1010.5 mb 0.00 in0.0 mm 0.00 in0.0 mm 0.30 in7.6 mm
04:09 PM 56.5°F13.6°C 13.5°F-10.3°C 18% 0.2 mph NNE0.3 kmh NNE 2.5 mph4.0 kmh 29.84 in1010.5 mb 0.00 in0.0 mm 0.00 in0.0 mm 0.30 in7.6 mm
04:14 PM 56.7°F13.7°C 13.6°F-10.2°C 18% 5.6 mph NNW9.0 kmh NNW 9.8 mph15.8 kmh 29.84 in1010.5 mb 0.00 in0.0 mm 0.00 in0.0 mm 0.30 in7.6 mm
04:19 PM 56.8°F13.8°C 15.1°F-9.4°C 19% 0.9 mph S1.4 kmh S 2.5 mph4.0 kmh 29.84 in1010.5 mb 0.00 in0.0 mm 0.00 in0.0 mm 0.30 in7.6 mm
04:24 PM 57.2°F14.0°C 11.5°F-11.4°C 16% 4.3 mph E6.9 kmh E 9.8 mph15.8 kmh 29.84 in1010.5 mb 0.00 in0.0 mm 0.00 in0.0 mm 0.30 in7.6 mm
04:29 PM 57.2°F14.0°C 12.7°F-10.7°C 17% 9.6 mph NW15.4 kmh NW 15.0 mph24.1 kmh 29.84 in1010.5 mb 0.00 in0.0 mm 0.00 in0.0 mm 0.30 in7.6 mm
04:34 PM 57.0°F13.9°C 14.0°F-10.0°C 18% 5.6 mph N9.0 kmh N 7.4 mph11.9 kmh 29.84 in1010.5 mb 0.00 in0.0 mm 0.00 in0.0 mm 0.30 in7.6 mm
04:39 PM 57.0°F13.9°C 14.0°F-10.0°C 18% 2.0 mph NNE3.2 kmh NNE 4.9 mph7.9 kmh 29.84 in1010.5 mb 0.00 in0.0 mm 0.00 in0.0 mm 0.30 in7.6 mm
04:44 PM 57.0°F13.9°C 15.3°F-9.3°C 19% 2.0 mph E3.2 kmh E 4.9 mph7.9 kmh 29.85 in1010.8 mb 0.00 in0.0 mm 0.00 in0.0 mm 0.30 in7.6 mm
04:49 PM 57.0°F13.9°C 14.0°F-10.0°C 18% 2.9 mph N4.7 kmh N 7.4 mph11.9 kmh 29.84 in1010.5 mb 0.00 in0.0 mm 0.00 in0.0 mm 0.30 in7.6 mm
04:54 PM 56.8°F13.8°C 12.6°F-10.8°C 17% 8.1 mph NNW13.0 kmh NNW 12.3 mph19.8 kmh 29.85 in1010.8 mb 0.00 in0.0 mm 0.00 in0.0 mm 0.30 in7.6 mm
04:59 PM 57.0°F13.9°C 11.3°F-11.5°C 16% 8.1 mph NW13.0 kmh NW 9.8 mph15.8 kmh 29.85 in1010.8 mb 0.00 in0.0 mm 0.00 in0.0 mm 0.30 in7.6 mm
05:04 PM 57.0°F13.9°C 11.3°F-11.5°C 16% 8.7 mph N14.0 kmh N 12.3 mph19.8 kmh 29.86 in1011.2 mb 0.00 in0.0 mm 0.00 in0.0 mm 0.30 in7.6 mm
05:09 PM 57.2°F14.0°C 11.5°F-11.4°C 16% 1.3 mph WNW2.1 kmh WNW 4.9 mph7.9 kmh 29.85 in1010.8 mb 0.00 in0.0 mm 0.00 in0.0 mm 0.30 in7.6 mm
05:14 PM 57.2°F14.0°C 11.5°F-11.4°C 16% 2.7 mph NE4.3 kmh NE 4.9 mph7.9 kmh 29.86 in1011.2 mb 0.00 in0.0 mm 0.00 in0.0 mm 0.30 in7.6 mm
05:19 PM 57.0°F13.9°C 11.3°F-11.5°C 16% 2.7 mph NE4.3 kmh NE 4.9 mph7.9 kmh 29.86 in1011.2 mb 0.00 in0.0 mm 0.00 in0.0 mm 0.30 in7.6 mm
05:24 PM 57.0°F13.9°C 11.3°F-11.5°C 16% 1.8 mph NE2.9 kmh NE 2.5 mph4.0 kmh 29.86 in1011.2 mb 0.00 in0.0 mm 0.00 in0.0 mm 0.30 in7.6 mm
05:29 PM 56.8°F13.8°C 11.1°F-11.6°C 16% 2.9 mph ENE4.7 kmh ENE 4.9 mph7.9 kmh 29.86 in1011.2 mb 0.00 in0.0 mm 0.00 in0.0 mm 0.30 in7.6 mm
05:34 PM 56.7°F13.7°C 12.4°F-10.9°C 17% 2.0 mph NNE3.2 kmh NNE 4.9 mph7.9 kmh 29.87 in1011.5 mb 0.00 in0.0 mm 0.00 in0.0 mm 0.30 in7.6 mm
05:39 PM 56.5°F13.6°C 10.8°F-11.8°C 16% 0.2 mph ENE0.3 kmh ENE 2.5 mph4.0 kmh 29.87 in1011.5 mb 0.00 in0.0 mm 0.00 in0.0 mm 0.30 in7.6 mm
05:44 PM 56.3°F13.5°C 10.8°F-11.8°C 16% 2.9 mph NE4.7 kmh NE 4.9 mph7.9 kmh 29.87 in1011.5 mb 0.00 in0.0 mm 0.00 in0.0 mm 0.30 in7.6 mm
05:49 PM 56.3°F13.5°C 13.3°F-10.4°C 18% 0.2 mph NE0.3 kmh NE 2.5 mph4.0 kmh 29.87 in1011.5 mb 0.00 in0.0 mm 0.00 in0.0 mm 0.30 in7.6 mm
05:54 PM 56.3°F13.5°C 13.3°F-10.4°C 18% 0.2 mph ENE0.3 kmh ENE 2.5 mph4.0 kmh 29.87 in1011.5 mb 0.00 in0.0 mm 0.00 in0.0 mm 0.30 in7.6 mm
05:59 PM 56.1°F13.4°C 11.8°F-11.2°C 17% 8.9 mph N14.3 kmh N 12.3 mph19.8 kmh 29.87 in1011.5 mb 0.00 in0.0 mm 0.00 in0.0 mm 0.30 in7.6 mm
06:04 PM 55.9°F13.3°C 13.1°F-10.5°C 18% 4.0 mph N6.4 kmh N 4.9 mph7.9 kmh 29.87 in1011.5 mb 0.00 in0.0 mm 0.00 in0.0 mm 0.30 in7.6 mm
06:09 PM 55.9°F13.3°C 13.1°F-10.5°C 18% 0.9 mph ENE1.4 kmh ENE 4.9 mph7.9 kmh 29.87 in1011.5 mb 0.00 in0.0 mm 0.00 in0.0 mm 0.30 in7.6 mm
06:14 PM 55.8°F13.2°C 12.9°F-10.6°C 18% 3.4 mph N5.5 kmh N 4.9 mph7.9 kmh 29.87 in1011.5 mb 0.00 in0.0 mm 0.00 in0.0 mm 0.30 in7.6 mm
06:19 PM 55.6°F13.1°C 14.0°F-10.0°C 19% 1.1 mph NE1.8 kmh NE 2.5 mph4.0 kmh 29.87 in1011.5 mb 0.00 in0.0 mm 0.00 in0.0 mm 0.30 in7.6 mm
06:24 PM 55.4°F13.0°C 13.8°F-10.1°C 19% 2.9 mph N4.7 kmh N 4.9 mph7.9 kmh 29.87 in1011.5 mb 0.00 in0.0 mm 0.00 in0.0 mm 0.30 in7.6 mm
06:29 PM 55.2°F12.9°C 14.9°F-9.5°C 20% Calm Calm -- 29.87 in1011.5 mb 0.00 in0.0 mm 0.00 in0.0 mm 0.30 in7.6 mm
06:34 PM 55.0°F12.8°C 15.8°F-9.0°C 21% 1.3 mph NE2.1 kmh NE 2.5 mph4.0 kmh 29.87 in1011.5 mb 0.00 in0.0 mm 0.00 in0.0 mm 0.30 in7.6 mm
06:39 PM 54.7°F12.6°C 15.6°F-9.1°C 21% Calm Calm -- 29.87 in1011.5 mb 0.00 in0.0 mm 0.00 in0.0 mm 0.30 in7.6 mm
06:44 PM 54.3°F12.4°C 17.2°F-8.2°C 23% 0.4 mph NE0.6 kmh NE 2.5 mph4.0 kmh 29.87 in1011.5 mb 0.00 in0.0 mm 0.00 in0.0 mm 0.30 in7.6 mm
06:49 PM 54.0°F12.2°C 18.0°F-7.8°C 24% Calm Calm -- 29.87 in1011.5 mb 0.00 in0.0 mm 0.00 in0.0 mm 0.30 in7.6 mm
06:54 PM 53.4°F11.9°C 18.5°F-7.5°C 25% Calm Calm -- 29.87 in1011.5 mb 0.00 in0.0 mm 0.00 in0.0 mm 0.30 in7.6 mm
06:59 PM 52.9°F11.6°C 19.8°F-6.8°C 27% Calm Calm -- 29.87 in1011.5 mb 0.00 in0.0 mm 0.00 in0.0 mm 0.30 in7.6 mm
07:04 PM 52.0°F11.1°C 20.7°F-6.3°C 29% Calm Calm -- 29.87 in1011.5 mb 0.00 in0.0 mm 0.00 in0.0 mm 0.30 in7.6 mm
07:09 PM 51.3°F10.7°C 22.5°F-5.3°C 32% Calm Calm -- 29.87 in1011.5 mb 0.00 in0.0 mm 0.00 in0.0 mm 0.30 in7.6 mm
07:14 PM 50.4°F10.2°C 23.0°F-5.0°C 34% Calm Calm -- 29.87 in1011.5 mb 0.00 in0.0 mm 0.00 in0.0 mm 0.30 in7.6 mm
07:19 PM 49.5°F9.7°C 23.7°F-4.6°C 36% Calm Calm -- 29.88 in1011.9 mb 0.00 in0.0 mm 0.00 in0.0 mm 0.30 in7.6 mm
07:24 PM 48.6°F9.2°C 24.1°F-4.4°C 38% Calm Calm -- 29.87 in1011.5 mb 0.00 in0.0 mm 0.00 in0.0 mm 0.30 in7.6 mm
07:29 PM 47.7°F8.7°C 23.9°F-4.5°C 39% Calm Calm -- 29.87 in1011.5 mb 0.00 in0.0 mm 0.00 in0.0 mm 0.30 in7.6 mm
07:34 PM 46.8°F8.2°C 23.7°F-4.6°C 40% Calm Calm -- 29.88 in1011.9 mb 0.00 in0.0 mm 0.00 in0.0 mm 0.30 in7.6 mm
07:39 PM 45.9°F7.7°C 25.2°F-3.8°C 44% Calm Calm -- 29.87 in1011.5 mb 0.00 in0.0 mm 0.00 in0.0 mm 0.30 in7.6 mm
07:44 PM 45.0°F7.2°C 25.0°F-3.9°C 45% Calm Calm -- 29.87 in1011.5 mb 0.00 in0.0 mm 0.00 in0.0 mm 0.30 in7.6 mm
07:49 PM 44.1°F6.7°C 24.6°F-4.1°C 46% Calm Calm -- 29.87 in1011.5 mb 0.00 in0.0 mm 0.00 in0.0 mm 0.30 in7.6 mm
07:54 PM 43.0°F6.1°C 24.6°F-4.1°C 48% Calm Calm -- 29.87 in1011.5 mb 0.00 in0.0 mm 0.00 in0.0 mm 0.30 in7.6 mm
07:59 PM 42.3°F5.7°C 22.5°F-5.3°C 45% Calm Calm -- 29.87 in1011.5 mb 0.00 in0.0 mm 0.00 in0.0 mm 0.30 in7.6 mm
08:04 PM 41.7°F5.4°C 21.9°F-5.6°C 45% Calm Calm -- 29.87 in1011.5 mb 0.00 in0.0 mm 0.00 in0.0 mm 0.30 in7.6 mm
08:09 PM 41.5°F5.3°C 21.7°F-5.7°C 45% Calm Calm -- 29.87 in1011.5 mb 0.00 in0.0 mm 0.00 in0.0 mm 0.30 in7.6 mm
08:14 PM 41.4°F5.2°C 22.1°F-5.5°C 46% Calm Calm -- 29.87 in1011.5 mb 0.00 in0.0 mm 0.00 in0.0 mm 0.30 in7.6 mm
08:19 PM 41.2°F5.1°C 23.0°F-5.0°C 48% Calm Calm -- 29.87 in1011.5 mb 0.00 in0.0 mm 0.00 in0.0 mm 0.30 in7.6 mm
08:24 PM 41.0°F5.0°C 23.7°F-4.6°C 50% Calm Calm -- 29.87 in1011.5 mb 0.00 in0.0 mm 0.00 in0.0 mm 0.30 in7.6 mm
08:29 PM 40.6°F4.8°C 24.8°F-4.0°C 53% Calm Calm -- 29.87 in1011.5 mb 0.00 in0.0 mm 0.00 in0.0 mm 0.30 in7.6 mm
08:34 PM 40.1°F4.5°C 25.2°F-3.8°C 55% Calm Calm -- 29.87 in1011.5 mb 0.00 in0.0 mm 0.00 in0.0 mm 0.30 in7.6 mm
08:39 PM 39.9°F4.4°C 25.5°F-3.6°C 56% Calm Calm -- 29.87 in1011.5 mb 0.00 in0.0 mm 0.00 in0.0 mm 0.30 in7.6 mm
08:44 PM 39.2°F4.0°C 24.4°F-4.2°C 55% Calm Calm -- 29.87 in1011.5 mb 0.00 in0.0 mm 0.00 in0.0 mm 0.30 in7.6 mm
08:49 PM 38.8°F3.8°C 23.5°F-4.7°C 54% Calm Calm -- 29.87 in1011.5 mb 0.00 in0.0 mm 0.00 in0.0 mm 0.30 in7.6 mm
08:54 PM 38.3°F3.5°C 23.5°F-4.7°C 55% Calm Calm -- 29.87 in1011.5 mb 0.00 in0.0 mm 0.00 in0.0 mm 0.30 in7.6 mm
08:59 PM 37.9°F3.3°C 23.7°F-4.6°C 56% Calm Calm -- 29.87 in1011.5 mb 0.00 in0.0 mm 0.00 in0.0 mm 0.30 in7.6 mm
09:04 PM 37.4°F3.0°C 24.4°F-4.2°C 59% Calm Calm -- 29.86 in1011.2 mb 0.00 in0.0 mm 0.00 in0.0 mm 0.30 in7.6 mm
09:09 PM 37.0°F2.8°C 24.1°F-4.4°C 59% Calm Calm -- 29.86 in1011.2 mb 0.00 in0.0 mm 0.00 in0.0 mm 0.30 in7.6 mm
09:14 PM 36.9°F2.7°C 23.0°F-5.0°C 57% Calm Calm -- 29.86 in1011.2 mb 0.00 in0.0 mm 0.00 in0.0 mm 0.30 in7.6 mm
09:19 PM 36.9°F2.7°C 23.5°F-4.7°C 58% Calm Calm -- 29.86 in1011.2 mb 0.00 in0.0 mm 0.00 in0.0 mm 0.30 in7.6 mm
09:24 PM 36.5°F2.5°C 23.9°F-4.5°C 60% Calm Calm -- 29.86 in1011.2 mb 0.00 in0.0 mm 0.00 in0.0 mm 0.30 in7.6 mm
09:29 PM 36.1°F2.3°C 24.1°F-4.4°C 61% Calm Calm -- 29.85 in1010.8 mb 0.00 in0.0 mm 0.00 in0.0 mm 0.30 in7.6 mm
09:34 PM 35.8°F2.1°C 24.1°F-4.4°C 62% Calm Calm -- 29.86 in1011.2 mb 0.00 in0.0 mm 0.00 in0.0 mm 0.30 in7.6 mm
09:39 PM 35.6°F2.0°C 24.3°F-4.3°C 63% Calm Calm -- 29.86 in1011.2 mb 0.00 in0.0 mm 0.00 in0.0 mm 0.30 in7.6 mm
09:44 PM 35.2°F1.8°C 23.9°F-4.5°C 63% Calm Calm -- 29.86 in1011.2 mb 0.00 in0.0 mm 0.00 in0.0 mm 0.30 in7.6 mm
09:49 PM 35.1°F1.7°C 23.7°F-4.6°C 63% Calm Calm -- 29.86 in1011.2 mb 0.00 in0.0 mm 0.00 in0.0 mm 0.30 in7.6 mm
09:54 PM 34.9°F1.6°C 23.5°F-4.7°C 63% Calm Calm -- 29.86 in1011.2 mb 0.00 in0.0 mm 0.00 in0.0 mm 0.30 in7.6 mm
09:59 PM 34.7°F1.5°C 22.6°F-5.2°C 61% Calm Calm -- 29.86 in1011.2 mb 0.00 in0.0 mm 0.00 in0.0 mm 0.30 in7.6 mm
10:04 PM 34.5°F1.4°C 22.1°F-5.5°C 60% Calm Calm -- 29.85 in1010.8 mb 0.00 in0.0 mm 0.00 in0.0 mm 0.30 in7.6 mm
10:09 PM 34.3°F1.3°C 22.6°F-5.2°C 62% Calm Calm -- 29.85 in1010.8 mb 0.00 in0.0 mm 0.00 in0.0 mm 0.30 in7.6 mm
10:14 PM 34.2°F1.2°C 22.8°F-5.1°C 63% Calm Calm -- 29.85 in1010.8 mb 0.00 in0.0 mm 0.00 in0.0 mm 0.30 in7.6 mm
10:19 PM 34.0°F1.1°C 23.2°F-4.9°C 64% Calm Calm -- 29.86 in1011.2 mb 0.00 in0.0 mm 0.00 in0.0 mm 0.30 in7.6 mm
10:24 PM 33.8°F1.0°C 23.4°F-4.8°C 65% Calm Calm -- 29.87 in1011.5 mb 0.00 in0.0 mm 0.00 in0.0 mm 0.30 in7.6 mm
10:29 PM 33.6°F0.9°C 23.5°F-4.7°C 66% Calm Calm -- 29.87 in1011.5 mb 0.00 in0.0 mm 0.00 in0.0 mm 0.30 in7.6 mm
10:34 PM 33.4°F0.8°C 23.7°F-4.6°C 67% Calm Calm -- 29.88 in1011.9 mb 0.00 in0.0 mm 0.00 in0.0 mm 0.30 in7.6 mm
10:39 PM 33.1°F0.6°C 23.7°F-4.6°C 68% Calm Calm -- 29.88 in1011.9 mb 0.00 in0.0 mm 0.00 in0.0 mm 0.30 in7.6 mm
10:44 PM 33.1°F0.6°C 24.1°F-4.4°C 69% Calm Calm -- 29.88 in1011.9 mb 0.00 in0.0 mm 0.00 in0.0 mm 0.30 in7.6 mm
10:49 PM 32.7°F0.4°C 23.7°F-4.6°C 69% Calm Calm -- 29.88 in1011.9 mb 0.00 in0.0 mm 0.00 in0.0 mm 0.30 in7.6 mm
10:54 PM 32.4°F0.2°C 23.4°F-4.8°C 69% Calm Calm -- 29.88 in1011.9 mb 0.00 in0.0 mm 0.00 in0.0 mm 0.30 in7.6 mm
10:59 PM 32.0°F0.0°C 23.0°F-5.0°C 69% Calm Calm -- 29.88 in1011.9 mb 0.00 in0.0 mm 0.00 in0.0 mm 0.30 in7.6 mm
11:04 PM 32.0°F0.0°C 23.4°F-4.8°C 70% Calm Calm -- 29.88 in1011.9 mb 0.00 in0.0 mm 0.00 in0.0 mm 0.30 in7.6 mm
11:09 PM 32.0°F0.0°C 23.4°F-4.8°C 70% Calm Calm -- 29.88 in1011.9 mb 0.00 in0.0 mm 0.00 in0.0 mm 0.30 in7.6 mm
11:14 PM 31.8°F-0.1°C 23.2°F-4.9°C 70% Calm Calm -- 29.88 in1011.9 mb 0.00 in0.0 mm 0.00 in0.0 mm 0.30 in7.6 mm
11:19 PM 31.8°F-0.1°C 23.2°F-4.9°C 70% Calm Calm -- 29.88 in1011.9 mb 0.00 in0.0 mm 0.00 in0.0 mm 0.30 in7.6 mm
11:24 PM 31.6°F-0.2°C 23.0°F-5.0°C 70% Calm Calm -- 29.88 in1011.9 mb 0.00 in0.0 mm 0.00 in0.0 mm 0.30 in7.6 mm
11:29 PM 31.6°F-0.2°C 23.0°F-5.0°C 70% Calm Calm -- 29.88 in1011.9 mb 0.00 in0.0 mm 0.00 in0.0 mm 0.30 in7.6 mm
11:34 PM 31.6°F-0.2°C 23.0°F-5.0°C 70% Calm Calm -- 29.88 in1011.9 mb 0.00 in0.0 mm 0.00 in0.0 mm 0.30 in7.6 mm
11:39 PM 31.5°F-0.3°C 22.8°F-5.1°C 70% Calm Calm -- 29.87 in1011.5 mb 0.00 in0.0 mm 0.00 in0.0 mm 0.30 in7.6 mm
11:44 PM 31.5°F-0.3°C 23.2°F-4.9°C 71% Calm Calm -- 29.87 in1011.5 mb 0.00 in0.0 mm 0.00 in0.0 mm 0.30 in7.6 mm
11:49 PM 31.3°F-0.4°C 23.0°F-5.0°C 71% Calm Calm -- 29.88 in1011.9 mb 0.00 in0.0 mm 0.00 in0.0 mm 0.30 in7.6 mm
11:54 PM 31.1°F-0.5°C 22.8°F-5.1°C 71% Calm Calm -- 29.87 in1011.5 mb 0.00 in0.0 mm 0.00 in0.0 mm 0.30 in7.6 mm
11:59 PM 30.9°F-0.6°C 23.0°F-5.0°C 72% Calm Calm -- 29.87 in1011.5 mb 0.00 in0.0 mm 0.00 in0.0 mm 0.30 in7.6 mm